BAW5PT EGLL-LPPT
Flight info
| Callsign | BAW5PT |
|---|---|
| Flight time | 2h 9m |
| Altitude | 39000 |
| Route | GASGU N866 SAM M195 MARUK/N0476F410 M195 LORKU DCT POZOF DCT BALDA DCT ABUPI DCT XAMAX |
| Aircraft | B772/H-SDE2E3FGHIJ5LORVWXY/LB1D1 |
Departure
| Time | 2026-05-06 15:09 |
|---|---|
| Airport | London Heathrow Airport (EGLL) |
Arrival
| Time | 2026-05-06 17:18 |
|---|---|
| Airport | Lisbon Humberto Delgado Airport (LPPT) |
| Time | Latitude | Longitude | Altitude | Speed | Heading |
|---|---|---|---|---|---|
| 2026-05-06 14:40 | 51.47182 | -0.48231 | 94 ft | 0 kts | 89° |
| 2026-05-06 14:59 | 51.47182 | -0.48253 | 93 ft | 4 kts | 89° |
| 2026-05-06 14:59 | 51.47181 | -0.48295 | 92 ft | 3 kts | 89° |
| 2026-05-06 15:00 | 51.47182 | -0.48329 | 90 ft | 4 kts | 110° |
| 2026-05-06 15:00 | 51.47197 | -0.48356 | 93 ft | 4 kts | 171° |
| 2026-05-06 15:00 | 51.47222 | -0.48358 | 91 ft | 4 kts | 179° |
| 2026-05-06 15:00 | 51.47233 | -0.48358 | 92 ft | 0 kts | 179° |
| 2026-05-06 15:02 | 51.47221 | -0.48358 | 93 ft | 7 kts | 179° |
| 2026-05-06 15:03 | 51.47141 | -0.48357 | 94 ft | 13 kts | 180° |
| 2026-05-06 15:03 | 51.47049 | -0.48356 | 94 ft | 13 kts | 180° |
| 2026-05-06 15:03 | 51.46962 | -0.48355 | 94 ft | 10 kts | 179° |
| 2026-05-06 15:03 | 51.46891 | -0.48355 | 94 ft | 10 kts | 180° |
| 2026-05-06 15:04 | 51.46820 | -0.48354 | 91 ft | 10 kts | 180° |
| 2026-05-06 15:04 | 51.46754 | -0.48377 | 94 ft | 10 kts | 228° |
| 2026-05-06 15:04 | 51.46742 | -0.48488 | 91 ft | 10 kts | 269° |
| 2026-05-06 15:04 | 51.46741 | -0.48602 | 91 ft | 10 kts | 270° |
| 2026-05-06 15:05 | 51.46739 | -0.48712 | 91 ft | 9 kts | 256° |
| 2026-05-06 15:05 | 51.46687 | -0.48749 | 93 ft | 8 kts | 182° |
| 2026-05-06 15:05 | 51.46638 | -0.48747 | 93 ft | 6 kts | 184° |
| 2026-05-06 15:05 | 51.46609 | -0.48761 | 93 ft | 0 kts | 201° |
| 2026-05-06 15:06 | 51.46605 | -0.48764 | 94 ft | 4 kts | 201° |
| 2026-05-06 15:06 | 51.46553 | -0.48791 | 93 ft | 9 kts | 188° |
| 2026-05-06 15:06 | 51.46496 | -0.48757 | 94 ft | 9 kts | 138° |
| 2026-05-06 15:07 | 51.46478 | -0.48663 | 93 ft | 7 kts | 89° |
| 2026-05-06 15:07 | 51.46478 | -0.48660 | 93 ft | 0 kts | 89° |
| 2026-05-06 15:08 | 51.46479 | -0.48349 | 92 ft | 66 kts | 89° |
| 2026-05-06 15:08 | 51.46483 | -0.47206 | 94 ft | 137 kts | 89° |
| 2026-05-06 15:09 | 51.46474 | -0.45409 | 327 ft | 174 kts | 86° |
| 2026-05-06 15:09 | 51.46465 | -0.43408 | 1116 ft | 185 kts | 87° |
| 2026-05-06 15:09 | 51.46363 | -0.41317 | 1977 ft | 194 kts | 103° |
| 2026-05-06 15:09 | 51.45665 | -0.39353 | 2404 ft | 213 kts | 122° |
| 2026-05-06 15:10 | 51.44770 | -0.37336 | 2713 ft | 233 kts | 122° |
| 2026-05-06 15:10 | 51.43804 | -0.35210 | 3312 ft | 238 kts | 126° |
| 2026-05-06 15:10 | 51.42484 | -0.33407 | 3566 ft | 265 kts | 152° |
| 2026-05-06 15:10 | 51.40685 | -0.32603 | 4231 ft | 274 kts | 176° |
| 2026-05-06 15:11 | 51.38801 | -0.33036 | 4952 ft | 278 kts | 203° |
| 2026-05-06 15:11 | 51.37211 | -0.34706 | 5671 ft | 270 kts | 225° |
| 2026-05-06 15:11 | 51.35865 | -0.36784 | 6381 ft | 267 kts | 226° |
| 2026-05-06 15:11 | 51.34523 | -0.38842 | 7166 ft | 267 kts | 225° |
| 2026-05-06 15:12 | 51.33129 | -0.40914 | 7604 ft | 281 kts | 225° |
| 2026-05-06 15:12 | 51.31711 | -0.43092 | 8156 ft | 283 kts | 232° |
| 2026-05-06 15:12 | 51.30592 | -0.45684 | 8676 ft | 285 kts | 243° |
| 2026-05-06 15:12 | 51.29753 | -0.48554 | 9253 ft | 286 kts | 253° |
| 2026-05-06 15:13 | 51.29192 | -0.51616 | 9833 ft | 288 kts | 257° |
| 2026-05-06 15:13 | 51.28663 | -0.54721 | 10404 ft | 296 kts | 257° |
| 2026-05-06 15:13 | 51.28094 | -0.58005 | 10696 ft | 315 kts | 256° |
| 2026-05-06 15:13 | 51.27454 | -0.61409 | 11382 ft | 323 kts | 255° |
| 2026-05-06 15:14 | 51.26782 | -0.64874 | 12233 ft | 328 kts | 255° |
| 2026-05-06 15:14 | 51.26099 | -0.68367 | 13253 ft | 332 kts | 254° |
| 2026-05-06 15:14 | 51.25408 | -0.71907 | 14252 ft | 335 kts | 254° |
| 2026-05-06 15:14 | 51.24713 | -0.75468 | 15187 ft | 338 kts | 254° |
| 2026-05-06 15:15 | 51.24011 | -0.79070 | 16105 ft | 342 kts | 253° |
| 2026-05-06 15:15 | 51.23298 | -0.82732 | 16951 ft | 348 kts | 253° |
| 2026-05-06 15:15 | 51.22573 | -0.86446 | 17816 ft | 353 kts | 253° |
| 2026-05-06 15:15 | 51.21839 | -0.90190 | 18714 ft | 356 kts | 253° |
| 2026-05-06 15:16 | 51.21085 | -0.93959 | 19514 ft | 354 kts | 251° |
| 2026-05-06 15:16 | 51.19871 | -0.97409 | 20122 ft | 365 kts | 230° |
| 2026-05-06 15:16 | 51.18039 | -1.00223 | 20777 ft | 368 kts | 224° |
| 2026-05-06 15:16 | 51.16179 | -1.03005 | 21449 ft | 374 kts | 225° |
| 2026-05-06 15:17 | 51.14288 | -1.05874 | 22280 ft | 377 kts | 225° |
| 2026-05-06 15:17 | 51.12382 | -1.08778 | 23065 ft | 381 kts | 225° |
| 2026-05-06 15:17 | 51.10460 | -1.11714 | 23792 ft | 385 kts | 225° |
| 2026-05-06 15:17 | 51.08514 | -1.14685 | 24461 ft | 389 kts | 225° |
| 2026-05-06 15:18 | 51.06556 | -1.17675 | 25106 ft | 393 kts | 225° |
| 2026-05-06 15:18 | 51.04569 | -1.20707 | 25727 ft | 398 kts | 225° |
| 2026-05-06 15:18 | 51.02566 | -1.23760 | 26395 ft | 401 kts | 225° |
| 2026-05-06 15:18 | 51.00543 | -1.26841 | 27016 ft | 405 kts | 225° |
| 2026-05-06 15:19 | 50.98498 | -1.29950 | 27582 ft | 410 kts | 225° |
| 2026-05-06 15:19 | 50.96422 | -1.33075 | 28245 ft | 413 kts | 223° |
| 2026-05-06 15:19 | 50.94187 | -1.35975 | 28810 ft | 418 kts | 217° |
| 2026-05-06 15:19 | 50.91748 | -1.38543 | 29287 ft | 424 kts | 214° |
| 2026-05-06 15:20 | 50.89267 | -1.41087 | 29915 ft | 426 kts | 214° |
| 2026-05-06 15:20 | 50.86778 | -1.43644 | 30393 ft | 429 kts | 214° |
| 2026-05-06 15:20 | 50.84263 | -1.46236 | 30776 ft | 433 kts | 214° |
| 2026-05-06 15:20 | 50.81729 | -1.48857 | 31200 ft | 436 kts | 214° |
| 2026-05-06 15:21 | 50.79182 | -1.51497 | 31643 ft | 439 kts | 214° |
| 2026-05-06 15:21 | 50.76626 | -1.54147 | 32065 ft | 441 kts | 214° |
| 2026-05-06 15:21 | 50.74121 | -1.56742 | 32459 ft | 444 kts | 214° |
| 2026-05-06 15:21 | 50.71910 | -1.59030 | 32792 ft | 446 kts | 214° |
| 2026-05-06 15:22 | 50.69552 | -1.61469 | 33137 ft | 449 kts | 214° |
| 2026-05-06 15:22 | 50.67555 | -1.63531 | 33370 ft | 452 kts | 214° |
| 2026-05-06 15:22 | 50.65311 | -1.65846 | 33662 ft | 454 kts | 214° |
| 2026-05-06 15:22 | 50.63202 | -1.68019 | 33941 ft | 456 kts | 214° |
| 2026-05-06 15:23 | 50.61175 | -1.70105 | 34043 ft | 461 kts | 214° |
| 2026-05-06 15:23 | 50.59077 | -1.72262 | 34267 ft | 463 kts | 214° |
| 2026-05-06 15:23 | 50.56943 | -1.74453 | 34525 ft | 463 kts | 214° |
| 2026-05-06 15:23 | 50.54412 | -1.77049 | 34826 ft | 464 kts | 214° |
| 2026-05-06 15:24 | 50.51711 | -1.79813 | 35171 ft | 464 kts | 214° |
| 2026-05-06 15:24 | 50.48999 | -1.82571 | 35542 ft | 464 kts | 214° |
| 2026-05-06 15:24 | 50.46321 | -1.85286 | 35901 ft | 464 kts | 214° |
| 2026-05-06 15:24 | 50.43613 | -1.88027 | 36240 ft | 463 kts | 214° |
| 2026-05-06 15:25 | 50.40951 | -1.90719 | 36636 ft | 463 kts | 214° |
| 2026-05-06 15:25 | 50.38236 | -1.93463 | 36912 ft | 464 kts | 214° |
| 2026-05-06 15:25 | 50.35524 | -1.96202 | 37234 ft | 465 kts | 214° |
| 2026-05-06 15:25 | 50.32809 | -1.98941 | 37581 ft | 464 kts | 214° |
| 2026-05-06 15:26 | 50.30130 | -2.01639 | 37929 ft | 464 kts | 214° |
| 2026-05-06 15:26 | 50.27402 | -2.04384 | 38249 ft | 464 kts | 214° |
| 2026-05-06 15:26 | 50.24684 | -2.07113 | 38589 ft | 464 kts | 214° |
| 2026-05-06 15:26 | 50.22005 | -2.09769 | 38826 ft | 464 kts | 213° |
| 2026-05-06 15:27 | 50.19234 | -2.12474 | 38931 ft | 468 kts | 213° |
| 2026-05-06 15:27 | 50.13757 | -2.17782 | 38988 ft | 468 kts | 213° |
| 2026-05-06 15:28 | 50.08274 | -2.23097 | 38993 ft | 463 kts | 213° |
| 2026-05-06 15:28 | 50.02809 | -2.28395 | 38994 ft | 463 kts | 213° |
| 2026-05-06 15:29 | 49.97344 | -2.33681 | 39002 ft | 463 kts | 213° |
| 2026-05-06 15:29 | 49.91759 | -2.38660 | 38986 ft | 465 kts | 206° |
| 2026-05-06 15:30 | 49.85846 | -2.42757 | 38997 ft | 466 kts | 205° |
| 2026-05-06 15:30 | 49.79913 | -2.46827 | 38997 ft | 467 kts | 205° |
| 2026-05-06 15:31 | 49.73983 | -2.50925 | 38999 ft | 467 kts | 206° |
| 2026-05-06 15:31 | 49.68044 | -2.55043 | 38992 ft | 468 kts | 206° |
| 2026-05-06 15:32 | 49.59139 | -2.61208 | 38994 ft | 468 kts | 206° |
| 2026-05-06 15:32 | 49.53198 | -2.65305 | 38994 ft | 467 kts | 206° |
| 2026-05-06 15:33 | 49.47266 | -2.69385 | 38992 ft | 467 kts | 206° |
| 2026-05-06 15:33 | 49.41331 | -2.73455 | 38996 ft | 467 kts | 205° |
| 2026-05-06 15:34 | 49.35436 | -2.77488 | 38993 ft | 467 kts | 205° |
| 2026-05-06 15:34 | 49.29507 | -2.81532 | 38986 ft | 467 kts | 205° |
| 2026-05-06 15:35 | 49.23574 | -2.85570 | 38979 ft | 466 kts | 205° |
| 2026-05-06 15:35 | 49.17641 | -2.89596 | 38982 ft | 466 kts | 205° |
| 2026-05-06 15:36 | 49.11710 | -2.93610 | 38985 ft | 467 kts | 205° |
| 2026-05-06 15:36 | 49.05770 | -2.97621 | 38984 ft | 467 kts | 205° |
| 2026-05-06 15:37 | 48.99827 | -3.01622 | 38975 ft | 467 kts | 205° |
| 2026-05-06 15:37 | 48.93889 | -3.05610 | 38982 ft | 467 kts | 205° |
| 2026-05-06 15:38 | 48.88944 | -3.08923 | 38986 ft | 467 kts | 205° |
| 2026-05-06 15:38 | 48.83001 | -3.12895 | 38988 ft | 467 kts | 205° |
| 2026-05-06 15:39 | 48.77049 | -3.16863 | 38987 ft | 467 kts | 205° |
| 2026-05-06 15:39 | 48.71097 | -3.20820 | 38989 ft | 467 kts | 205° |
| 2026-05-06 15:40 | 48.65152 | -3.24762 | 38988 ft | 467 kts | 205° |
| 2026-05-06 15:40 | 48.59200 | -3.28699 | 38979 ft | 467 kts | 205° |
| 2026-05-06 15:41 | 48.53253 | -3.32623 | 38983 ft | 467 kts | 205° |
| 2026-05-06 15:41 | 48.47299 | -3.36541 | 38975 ft | 467 kts | 205° |
| 2026-05-06 15:42 | 48.41341 | -3.40452 | 38971 ft | 467 kts | 205° |
| 2026-05-06 15:42 | 48.35386 | -3.44350 | 38967 ft | 467 kts | 205° |
| 2026-05-06 15:43 | 48.29427 | -3.48241 | 38971 ft | 467 kts | 205° |
| 2026-05-06 15:43 | 48.23509 | -3.52096 | 38971 ft | 467 kts | 205° |
| 2026-05-06 15:44 | 48.17553 | -3.55966 | 38967 ft | 467 kts | 205° |
| 2026-05-06 15:44 | 48.11593 | -3.59828 | 38978 ft | 467 kts | 205° |
| 2026-05-06 15:45 | 48.05636 | -3.63679 | 38964 ft | 467 kts | 205° |
| 2026-05-06 15:45 | 47.99670 | -3.67526 | 38966 ft | 467 kts | 205° |
| 2026-05-06 15:46 | 47.93707 | -3.71361 | 38955 ft | 467 kts | 205° |
| 2026-05-06 15:46 | 47.87735 | -3.75193 | 38969 ft | 467 kts | 205° |
| 2026-05-06 15:47 | 47.81758 | -3.79017 | 38969 ft | 467 kts | 205° |
| 2026-05-06 15:47 | 47.75787 | -3.82829 | 38951 ft | 467 kts | 205° |
| 2026-05-06 15:48 | 47.69810 | -3.86634 | 38973 ft | 467 kts | 205° |
| 2026-05-06 15:48 | 47.63874 | -3.90404 | 38969 ft | 467 kts | 205° |
| 2026-05-06 15:49 | 47.57866 | -3.94211 | 38969 ft | 467 kts | 205° |
| 2026-05-06 15:49 | 47.51928 | -3.97963 | 38964 ft | 467 kts | 205° |
| 2026-05-06 15:50 | 47.45910 | -4.01757 | 38977 ft | 467 kts | 205° |
| 2026-05-06 15:50 | 47.39932 | -4.05517 | 38986 ft | 468 kts | 205° |
| 2026-05-06 15:51 | 47.33972 | -4.09256 | 38984 ft | 469 kts | 205° |
| 2026-05-06 15:51 | 47.27970 | -4.13012 | 38978 ft | 469 kts | 205° |
| 2026-05-06 15:52 | 47.21966 | -4.16760 | 38989 ft | 468 kts | 205° |
| 2026-05-06 15:52 | 47.15951 | -4.20506 | 39203 ft | 470 kts | 205° |
| 2026-05-06 15:53 | 47.12936 | -4.22381 | 39434 ft | 471 kts | 205° |
| 2026-05-06 15:53 | 47.09916 | -4.24257 | 39608 ft | 472 kts | 205° |
| 2026-05-06 15:53 | 47.06892 | -4.26132 | 39754 ft | 474 kts | 205° |
| 2026-05-06 15:53 | 47.03835 | -4.27973 | 39891 ft | 476 kts | 203° |
| 2026-05-06 15:54 | 47.00734 | -4.29711 | 40002 ft | 478 kts | 202° |
| 2026-05-06 15:54 | 46.97608 | -4.31398 | 40163 ft | 479 kts | 202° |
| 2026-05-06 15:54 | 46.94472 | -4.33073 | 40332 ft | 480 kts | 201° |
| 2026-05-06 15:54 | 46.91338 | -4.34749 | 40551 ft | 479 kts | 202° |
| 2026-05-06 15:55 | 46.88220 | -4.36427 | 40755 ft | 478 kts | 202° |
| 2026-05-06 15:55 | 46.85096 | -4.38118 | 40886 ft | 480 kts | 202° |
| 2026-05-06 15:55 | 46.78817 | -4.41535 | 40985 ft | 482 kts | 202° |
| 2026-05-06 15:56 | 46.72548 | -4.44947 | 40997 ft | 480 kts | 202° |
| 2026-05-06 15:56 | 46.66307 | -4.48335 | 40996 ft | 478 kts | 202° |
| 2026-05-06 15:57 | 46.60085 | -4.51703 | 40999 ft | 477 kts | 202° |
| 2026-05-06 15:57 | 46.53874 | -4.55056 | 41002 ft | 477 kts | 202° |
| 2026-05-06 15:58 | 46.47695 | -4.58385 | 41009 ft | 477 kts | 202° |
| 2026-05-06 15:58 | 46.41467 | -4.61730 | 41005 ft | 477 kts | 202° |
| 2026-05-06 15:59 | 46.35239 | -4.65068 | 41010 ft | 478 kts | 202° |
| 2026-05-06 15:59 | 46.28994 | -4.68407 | 41009 ft | 479 kts | 202° |
| 2026-05-06 16:00 | 46.22741 | -4.71742 | 41001 ft | 479 kts | 202° |
| 2026-05-06 16:00 | 46.16488 | -4.75069 | 41003 ft | 480 kts | 202° |
| 2026-05-06 16:01 | 46.10221 | -4.78395 | 41006 ft | 480 kts | 202° |
| 2026-05-06 16:01 | 46.03950 | -4.81715 | 41020 ft | 480 kts | 202° |
| 2026-05-06 16:02 | 45.97685 | -4.85024 | 41023 ft | 480 kts | 202° |
| 2026-05-06 16:02 | 45.91412 | -4.88329 | 41004 ft | 480 kts | 201° |
| 2026-05-06 16:03 | 45.85139 | -4.91626 | 41010 ft | 480 kts | 201° |
| 2026-05-06 16:03 | 45.78875 | -4.94911 | 41022 ft | 480 kts | 201° |
| 2026-05-06 16:04 | 45.72643 | -4.98171 | 41020 ft | 480 kts | 201° |
| 2026-05-06 16:04 | 45.66334 | -5.01463 | 41012 ft | 480 kts | 201° |
| 2026-05-06 16:05 | 45.60103 | -5.04707 | 41018 ft | 480 kts | 201° |
| 2026-05-06 16:05 | 45.53830 | -5.07965 | 41018 ft | 479 kts | 201° |
| 2026-05-06 16:06 | 45.47566 | -5.11211 | 41020 ft | 479 kts | 201° |
| 2026-05-06 16:06 | 45.41296 | -5.14452 | 41016 ft | 479 kts | 201° |
| 2026-05-06 16:07 | 45.35036 | -5.17681 | 41019 ft | 479 kts | 201° |
| 2026-05-06 16:07 | 45.28770 | -5.20905 | 41019 ft | 479 kts | 201° |
| 2026-05-06 16:08 | 45.22505 | -5.24120 | 41015 ft | 479 kts | 201° |
| 2026-05-06 16:08 | 45.16247 | -5.27325 | 41020 ft | 478 kts | 201° |
| 2026-05-06 16:09 | 45.09982 | -5.30526 | 41019 ft | 478 kts | 201° |
| 2026-05-06 16:09 | 45.03722 | -5.33716 | 41018 ft | 479 kts | 201° |
| 2026-05-06 16:10 | 44.97455 | -5.36904 | 41015 ft | 479 kts | 201° |
| 2026-05-06 16:10 | 44.91185 | -5.40085 | 41020 ft | 479 kts | 201° |
| 2026-05-06 16:11 | 44.84919 | -5.43256 | 41012 ft | 479 kts | 201° |
| 2026-05-06 16:11 | 44.78645 | -5.46425 | 41019 ft | 479 kts | 201° |
| 2026-05-06 16:12 | 44.72368 | -5.49588 | 41019 ft | 479 kts | 201° |
| 2026-05-06 16:12 | 44.66096 | -5.52742 | 41016 ft | 479 kts | 201° |
| 2026-05-06 16:13 | 44.59876 | -5.55939 | 41014 ft | 478 kts | 205° |
| 2026-05-06 16:13 | 44.53785 | -5.59686 | 41022 ft | 478 kts | 206° |
| 2026-05-06 16:14 | 44.47716 | -5.63478 | 41016 ft | 478 kts | 206° |
| 2026-05-06 16:14 | 44.41634 | -5.67251 | 41017 ft | 478 kts | 206° |
| 2026-05-06 16:15 | 44.35546 | -5.70999 | 41016 ft | 478 kts | 205° |
| 2026-05-06 16:15 | 44.29461 | -5.74729 | 41016 ft | 478 kts | 205° |
| 2026-05-06 16:16 | 44.23370 | -5.78454 | 41013 ft | 478 kts | 206° |
| 2026-05-06 16:16 | 44.17279 | -5.82172 | 41011 ft | 478 kts | 206° |
| 2026-05-06 16:17 | 44.11197 | -5.85877 | 41013 ft | 478 kts | 205° |
| 2026-05-06 16:17 | 44.05105 | -5.89580 | 41001 ft | 478 kts | 206° |
| 2026-05-06 16:18 | 43.99014 | -5.93273 | 41009 ft | 477 kts | 205° |
| 2026-05-06 16:18 | 43.92931 | -5.96953 | 41011 ft | 477 kts | 205° |
| 2026-05-06 16:19 | 43.86839 | -6.00631 | 41003 ft | 477 kts | 206° |
| 2026-05-06 16:19 | 43.80748 | -6.04300 | 41012 ft | 477 kts | 205° |
| 2026-05-06 16:20 | 43.74665 | -6.07955 | 41014 ft | 477 kts | 205° |
| 2026-05-06 16:20 | 43.68574 | -6.11608 | 41013 ft | 477 kts | 205° |
| 2026-05-06 16:21 | 43.62489 | -6.15248 | 41008 ft | 477 kts | 205° |
| 2026-05-06 16:21 | 43.56397 | -6.18885 | 41022 ft | 477 kts | 205° |
| 2026-05-06 16:22 | 43.50312 | -6.22510 | 41021 ft | 477 kts | 205° |
| 2026-05-06 16:22 | 43.44256 | -6.26109 | 41009 ft | 477 kts | 205° |
| 2026-05-06 16:23 | 43.38169 | -6.29719 | 41011 ft | 476 kts | 205° |
| 2026-05-06 16:23 | 43.32040 | -6.33347 | 41003 ft | 477 kts | 205° |
| 2026-05-06 16:24 | 43.25989 | -6.36920 | 41004 ft | 476 kts | 205° |
| 2026-05-06 16:24 | 43.19896 | -6.40508 | 40995 ft | 476 kts | 205° |
| 2026-05-06 16:25 | 43.13806 | -6.44089 | 40974 ft | 476 kts | 205° |
| 2026-05-06 16:25 | 43.07720 | -6.47659 | 40965 ft | 476 kts | 205° |
| 2026-05-06 16:26 | 43.01622 | -6.51228 | 40966 ft | 476 kts | 205° |
| 2026-05-06 16:26 | 42.95536 | -6.54782 | 40954 ft | 476 kts | 205° |
| 2026-05-06 16:27 | 42.89442 | -6.58335 | 40944 ft | 476 kts | 205° |
| 2026-05-06 16:27 | 42.84385 | -6.61276 | 40948 ft | 476 kts | 205° |
| 2026-05-06 16:28 | 42.78300 | -6.64809 | 40931 ft | 475 kts | 205° |
| 2026-05-06 16:28 | 42.72226 | -6.68327 | 40927 ft | 474 kts | 205° |
| 2026-05-06 16:29 | 42.66152 | -6.71839 | 40928 ft | 474 kts | 205° |
| 2026-05-06 16:29 | 42.60077 | -6.75343 | 40929 ft | 474 kts | 205° |
| 2026-05-06 16:30 | 42.55031 | -6.78248 | 40927 ft | 474 kts | 205° |
| 2026-05-06 16:30 | 42.47930 | -6.82327 | 40932 ft | 474 kts | 205° |
| 2026-05-06 16:31 | 42.41849 | -6.85813 | 40929 ft | 475 kts | 205° |
| 2026-05-06 16:31 | 42.35767 | -6.89292 | 40927 ft | 475 kts | 205° |
| 2026-05-06 16:32 | 42.29679 | -6.92766 | 40930 ft | 475 kts | 205° |
| 2026-05-06 16:32 | 42.23593 | -6.96233 | 40926 ft | 475 kts | 205° |
| 2026-05-06 16:33 | 42.17539 | -6.99674 | 40932 ft | 475 kts | 205° |
| 2026-05-06 16:34 | 42.08391 | -7.04859 | 40931 ft | 475 kts | 205° |
| 2026-05-06 16:34 | 42.02297 | -7.08305 | 40928 ft | 475 kts | 205° |
| 2026-05-06 16:35 | 41.96196 | -7.11748 | 40910 ft | 475 kts | 205° |
| 2026-05-06 16:35 | 41.90108 | -7.15176 | 40922 ft | 474 kts | 205° |
| 2026-05-06 16:36 | 41.84019 | -7.18599 | 40923 ft | 474 kts | 205° |
| 2026-05-06 16:36 | 41.77932 | -7.22013 | 40917 ft | 474 kts | 205° |
| 2026-05-06 16:37 | 41.72123 | -7.25972 | 40927 ft | 461 kts | 212° |
| 2026-05-06 16:37 | 41.66619 | -7.30294 | 40929 ft | 458 kts | 212° |
| 2026-05-06 16:38 | 41.61119 | -7.34593 | 40906 ft | 457 kts | 212° |
| 2026-05-06 16:38 | 41.55617 | -7.38848 | 40906 ft | 457 kts | 212° |
| 2026-05-06 16:39 | 41.50106 | -7.43084 | 40922 ft | 457 kts | 212° |
| 2026-05-06 16:39 | 41.44592 | -7.47311 | 40918 ft | 458 kts | 212° |
| 2026-05-06 16:40 | 41.39104 | -7.51510 | 40892 ft | 458 kts | 212° |
| 2026-05-06 16:40 | 41.33576 | -7.55732 | 40909 ft | 458 kts | 212° |
| 2026-05-06 16:41 | 41.28043 | -7.59951 | 40922 ft | 458 kts | 212° |
| 2026-05-06 16:41 | 41.22515 | -7.64157 | 40917 ft | 458 kts | 212° |
| 2026-05-06 16:42 | 41.16976 | -7.68363 | 40915 ft | 459 kts | 212° |
| 2026-05-06 16:42 | 41.11434 | -7.72563 | 40914 ft | 459 kts | 212° |
| 2026-05-06 16:43 | 41.05892 | -7.76755 | 40905 ft | 458 kts | 212° |
| 2026-05-06 16:43 | 41.00357 | -7.80934 | 40906 ft | 457 kts | 212° |
| 2026-05-06 16:44 | 40.94836 | -7.85093 | 40909 ft | 457 kts | 212° |
| 2026-05-06 16:44 | 40.89307 | -7.89251 | 40905 ft | 457 kts | 212° |
| 2026-05-06 16:45 | 40.83780 | -7.93399 | 40910 ft | 456 kts | 212° |
| 2026-05-06 16:45 | 40.78261 | -7.97534 | 40913 ft | 456 kts | 212° |
| 2026-05-06 16:46 | 40.72738 | -8.01663 | 40914 ft | 456 kts | 212° |
| 2026-05-06 16:46 | 40.67216 | -8.05783 | 40549 ft | 457 kts | 212° |
| 2026-05-06 16:46 | 40.64445 | -8.07848 | 40143 ft | 459 kts | 212° |
| 2026-05-06 16:47 | 40.61666 | -8.09917 | 39841 ft | 457 kts | 212° |
| 2026-05-06 16:47 | 40.58903 | -8.11971 | 39648 ft | 455 kts | 212° |
| 2026-05-06 16:47 | 40.56159 | -8.14009 | 39423 ft | 453 kts | 212° |
| 2026-05-06 16:47 | 40.53426 | -8.16036 | 39172 ft | 449 kts | 212° |
| 2026-05-06 16:48 | 40.50710 | -8.18049 | 38897 ft | 447 kts | 212° |
| 2026-05-06 16:48 | 40.48009 | -8.20050 | 38633 ft | 444 kts | 212° |
| 2026-05-06 16:48 | 40.45323 | -8.22039 | 38317 ft | 442 kts | 212° |
| 2026-05-06 16:48 | 40.42654 | -8.24013 | 38027 ft | 438 kts | 212° |
| 2026-05-06 16:49 | 40.40012 | -8.25964 | 37768 ft | 435 kts | 212° |
| 2026-05-06 16:49 | 40.37384 | -8.27903 | 37500 ft | 431 kts | 212° |
| 2026-05-06 16:49 | 40.34778 | -8.29825 | 37225 ft | 428 kts | 212° |
| 2026-05-06 16:49 | 40.32190 | -8.31732 | 36689 ft | 428 kts | 212° |
| 2026-05-06 16:50 | 40.29585 | -8.33652 | 36036 ft | 430 kts | 212° |
| 2026-05-06 16:50 | 40.26982 | -8.35568 | 35469 ft | 430 kts | 212° |
| 2026-05-06 16:50 | 40.24411 | -8.37459 | 34944 ft | 429 kts | 212° |
| 2026-05-06 16:50 | 40.21807 | -8.39371 | 34399 ft | 429 kts | 212° |
| 2026-05-06 16:51 | 40.19207 | -8.41278 | 33822 ft | 428 kts | 212° |
| 2026-05-06 16:51 | 40.16617 | -8.43176 | 33153 ft | 427 kts | 212° |
| 2026-05-06 16:51 | 40.14026 | -8.45073 | 32546 ft | 426 kts | 212° |
| 2026-05-06 16:51 | 40.11451 | -8.46956 | 32064 ft | 422 kts | 211° |
| 2026-05-06 16:52 | 40.08903 | -8.48818 | 31594 ft | 417 kts | 211° |
| 2026-05-06 16:52 | 40.06382 | -8.50660 | 31123 ft | 414 kts | 211° |
| 2026-05-06 16:52 | 40.03878 | -8.52487 | 30638 ft | 411 kts | 211° |
| 2026-05-06 16:52 | 40.01357 | -8.54325 | 30127 ft | 408 kts | 210° |
| 2026-05-06 16:53 | 39.98889 | -8.56124 | 29584 ft | 406 kts | 210° |
| 2026-05-06 16:53 | 39.96430 | -8.57914 | 29047 ft | 403 kts | 210° |
| 2026-05-06 16:53 | 39.93993 | -8.59686 | 28518 ft | 400 kts | 210° |
| 2026-05-06 16:53 | 39.91602 | -8.61423 | 27999 ft | 397 kts | 210° |
| 2026-05-06 16:54 | 39.90217 | -8.62428 | 27711 ft | 395 kts | 210° |
| 2026-05-06 16:54 | 39.87822 | -8.64167 | 27217 ft | 393 kts | 210° |
| 2026-05-06 16:54 | 39.85443 | -8.65892 | 26693 ft | 391 kts | 210° |
| 2026-05-06 16:54 | 39.83073 | -8.67610 | 26191 ft | 389 kts | 210° |
| 2026-05-06 16:55 | 39.80715 | -8.69318 | 25726 ft | 387 kts | 210° |
| 2026-05-06 16:55 | 39.78371 | -8.71013 | 25279 ft | 384 kts | 210° |
| 2026-05-06 16:55 | 39.76042 | -8.72697 | 24876 ft | 381 kts | 210° |
| 2026-05-06 16:55 | 39.73733 | -8.74365 | 24439 ft | 379 kts | 210° |
| 2026-05-06 16:56 | 39.71430 | -8.76027 | 23984 ft | 378 kts | 210° |
| 2026-05-06 16:56 | 39.69139 | -8.77679 | 23631 ft | 374 kts | 210° |
| 2026-05-06 16:56 | 39.66881 | -8.79306 | 23223 ft | 370 kts | 210° |
| 2026-05-06 16:56 | 39.64636 | -8.80923 | 22765 ft | 368 kts | 210° |
| 2026-05-06 16:57 | 39.62406 | -8.82527 | 22357 ft | 365 kts | 210° |
| 2026-05-06 16:57 | 39.60190 | -8.84121 | 21908 ft | 363 kts | 210° |
| 2026-05-06 16:57 | 39.57982 | -8.85708 | 21457 ft | 362 kts | 210° |
| 2026-05-06 16:57 | 39.55769 | -8.87297 | 20897 ft | 364 kts | 210° |
| 2026-05-06 16:58 | 39.53550 | -8.88889 | 20433 ft | 363 kts | 210° |
| 2026-05-06 16:58 | 39.51340 | -8.90475 | 20000 ft | 362 kts | 210° |
| 2026-05-06 16:58 | 39.49149 | -8.92044 | 19627 ft | 359 kts | 210° |
| 2026-05-06 16:58 | 39.46971 | -8.93603 | 19256 ft | 357 kts | 210° |
| 2026-05-06 16:59 | 39.44815 | -8.95144 | 18983 ft | 352 kts | 210° |
| 2026-05-06 16:59 | 39.42664 | -8.96682 | 18494 ft | 354 kts | 210° |
| 2026-05-06 16:59 | 39.40510 | -8.98220 | 18142 ft | 352 kts | 210° |
| 2026-05-06 16:59 | 39.38401 | -8.99726 | 17688 ft | 351 kts | 210° |
| 2026-05-06 17:00 | 39.36280 | -9.01240 | 17282 ft | 349 kts | 210° |
| 2026-05-06 17:00 | 39.34148 | -9.02761 | 16771 ft | 350 kts | 210° |
| 2026-05-06 17:00 | 39.32038 | -9.04263 | 16519 ft | 345 kts | 210° |
| 2026-05-06 17:00 | 39.29929 | -9.05764 | 16031 ft | 346 kts | 210° |
| 2026-05-06 17:01 | 39.27824 | -9.07263 | 15610 ft | 345 kts | 210° |
| 2026-05-06 17:01 | 39.25729 | -9.08752 | 15250 ft | 343 kts | 210° |
| 2026-05-06 17:01 | 39.23651 | -9.10227 | 14905 ft | 341 kts | 210° |
| 2026-05-06 17:01 | 39.21573 | -9.11701 | 14549 ft | 339 kts | 210° |
| 2026-05-06 17:02 | 39.19506 | -9.13168 | 14144 ft | 339 kts | 210° |
| 2026-05-06 17:02 | 39.17453 | -9.14624 | 13875 ft | 335 kts | 210° |
| 2026-05-06 17:02 | 39.15411 | -9.16072 | 13382 ft | 337 kts | 210° |
| 2026-05-06 17:02 | 39.13370 | -9.17518 | 13112 ft | 332 kts | 210° |
| 2026-05-06 17:03 | 39.11329 | -9.18964 | 12602 ft | 335 kts | 210° |
| 2026-05-06 17:03 | 39.09296 | -9.20399 | 12347 ft | 330 kts | 210° |
| 2026-05-06 17:03 | 39.07287 | -9.21818 | 11986 ft | 329 kts | 210° |
| 2026-05-06 17:03 | 39.05292 | -9.23227 | 11623 ft | 328 kts | 210° |
| 2026-05-06 17:04 | 39.03292 | -9.24638 | 11264 ft | 328 kts | 210° |
| 2026-05-06 17:04 | 39.01295 | -9.26047 | 10937 ft | 326 kts | 210° |
| 2026-05-06 17:04 | 38.99308 | -9.27447 | 10601 ft | 324 kts | 210° |
| 2026-05-06 17:04 | 38.97345 | -9.28829 | 10240 ft | 318 kts | 210° |
| 2026-05-06 17:05 | 38.95461 | -9.30155 | 9849 ft | 300 kts | 210° |
| 2026-05-06 17:05 | 38.93675 | -9.31411 | 9427 ft | 286 kts | 211° |
| 2026-05-06 17:05 | 38.91958 | -9.32618 | 9020 ft | 278 kts | 210° |
| 2026-05-06 17:05 | 38.90260 | -9.33812 | 8641 ft | 280 kts | 210° |
| 2026-05-06 17:06 | 38.88535 | -9.35025 | 8259 ft | 283 kts | 210° |
| 2026-05-06 17:06 | 38.86816 | -9.36232 | 7885 ft | 281 kts | 209° |
| 2026-05-06 17:06 | 38.85131 | -9.37414 | 7501 ft | 279 kts | 210° |
| 2026-05-06 17:06 | 38.83398 | -9.38630 | 7247 ft | 282 kts | 210° |
| 2026-05-06 17:07 | 38.81674 | -9.39837 | 7025 ft | 282 kts | 209° |
| 2026-05-06 17:07 | 38.79985 | -9.41021 | 6771 ft | 278 kts | 209° |
| 2026-05-06 17:07 | 38.78299 | -9.42202 | 6518 ft | 275 kts | 209° |
| 2026-05-06 17:07 | 38.76609 | -9.43384 | 6263 ft | 273 kts | 209° |
| 2026-05-06 17:08 | 38.74961 | -9.44537 | 6017 ft | 273 kts | 209° |
| 2026-05-06 17:08 | 38.73294 | -9.45701 | 5748 ft | 273 kts | 210° |
| 2026-05-06 17:08 | 38.71627 | -9.46869 | 5487 ft | 273 kts | 211° |
| 2026-05-06 17:08 | 38.69952 | -9.48038 | 5241 ft | 274 kts | 210° |
| 2026-05-06 17:09 | 38.68272 | -9.49207 | 5003 ft | 275 kts | 211° |
| 2026-05-06 17:09 | 38.66548 | -9.50181 | 4706 ft | 272 kts | 193° |
| 2026-05-06 17:09 | 38.64639 | -9.49961 | 4429 ft | 285 kts | 157° |
| 2026-05-06 17:09 | 38.63055 | -9.48449 | 4212 ft | 287 kts | 128° |
| 2026-05-06 17:10 | 38.62026 | -9.46333 | 4059 ft | 275 kts | 113° |
| 2026-05-06 17:10 | 38.61251 | -9.44158 | 4006 ft | 263 kts | 112° |
| 2026-05-06 17:10 | 38.60530 | -9.42070 | 3995 ft | 251 kts | 112° |
| 2026-05-06 17:10 | 38.59836 | -9.40065 | 3983 ft | 247 kts | 112° |
| 2026-05-06 17:11 | 38.59136 | -9.38067 | 3990 ft | 245 kts | 110° |
| 2026-05-06 17:11 | 38.58432 | -9.36072 | 3997 ft | 248 kts | 111° |
| 2026-05-06 17:11 | 38.57720 | -9.34054 | 4005 ft | 250 kts | 112° |
| 2026-05-06 17:11 | 38.57088 | -9.32016 | 3971 ft | 242 kts | 96° |
| 2026-05-06 17:12 | 38.57228 | -9.29936 | 4003 ft | 235 kts | 66° |
| 2026-05-06 17:12 | 38.57857 | -9.28011 | 4017 ft | 237 kts | 63° |
| 2026-05-06 17:12 | 38.58482 | -9.26057 | 3999 ft | 236 kts | 65° |
| 2026-05-06 17:12 | 38.59208 | -9.24303 | 3975 ft | 211 kts | 43° |
| 2026-05-06 17:13 | 38.60350 | -9.23310 | 3846 ft | 193 kts | 24° |
| 2026-05-06 17:13 | 38.61527 | -9.22522 | 3566 ft | 189 kts | 22° |
| 2026-05-06 17:13 | 38.62686 | -9.21847 | 3344 ft | 178 kts | 20° |
| 2026-05-06 17:13 | 38.63831 | -9.21227 | 3079 ft | 178 kts | 19° |
| 2026-05-06 17:14 | 38.64954 | -9.20628 | 2853 ft | 174 kts | 19° |
| 2026-05-06 17:14 | 38.66032 | -9.20052 | 2598 ft | 161 kts | 18° |
| 2026-05-06 17:14 | 38.67035 | -9.19518 | 2423 ft | 153 kts | 17° |
| 2026-05-06 17:14 | 38.67977 | -9.19015 | 2204 ft | 139 kts | 18° |
| 2026-05-06 17:15 | 38.68820 | -9.18565 | 2008 ft | 123 kts | 17° |
| 2026-05-06 17:15 | 38.69598 | -9.18152 | 1885 ft | 122 kts | 16° |
| 2026-05-06 17:15 | 38.70388 | -9.17732 | 1709 ft | 124 kts | 17° |
| 2026-05-06 17:15 | 38.71164 | -9.17321 | 1535 ft | 121 kts | 17° |
| 2026-05-06 17:16 | 38.71683 | -9.17042 | 1369 ft | 124 kts | 18° |
| 2026-05-06 17:16 | 38.72496 | -9.16607 | 1257 ft | 130 kts | 17° |
| 2026-05-06 17:16 | 38.73331 | -9.16159 | 1081 ft | 129 kts | 15° |
| 2026-05-06 17:16 | 38.74153 | -9.15729 | 930 ft | 127 kts | 17° |
| 2026-05-06 17:17 | 38.74962 | -9.15289 | 740 ft | 127 kts | 17° |
| 2026-05-06 17:17 | 38.75768 | -9.14861 | 553 ft | 124 kts | 17° |
| 2026-05-06 17:17 | 38.76563 | -9.14436 | 400 ft | 124 kts | 19° |
| 2026-05-06 17:17 | 38.77529 | -9.13921 | 372 ft | 93 kts | 22° |
| 2026-05-06 17:18 | 38.77867 | -9.13735 | 368 ft | 63 kts | 23° |
| 2026-05-06 17:18 | 38.78138 | -9.13590 | 372 ft | 31 kts | 22° |
| 2026-05-06 17:18 | 38.78304 | -9.13446 | 372 ft | 30 kts | 45° |
| 2026-05-06 17:18 | 38.78372 | -9.13301 | 367 ft | 15 kts | 105° |
| 2026-05-06 17:19 | 38.78329 | -9.13269 | 369 ft | 8 kts | 179° |
| 2026-05-06 17:19 | 38.78280 | -9.13286 | 367 ft | 6 kts | 201° |
| 2026-05-06 17:19 | 38.78276 | -9.13288 | 368 ft | 1 kts | 201° |
| 2026-05-06 17:19 | 38.78235 | -9.13308 | 365 ft | 12 kts | 202° |
| 2026-05-06 17:20 | 38.78154 | -9.13352 | 367 ft | 13 kts | 203° |
| 2026-05-06 17:20 | 38.78072 | -9.13395 | 368 ft | 13 kts | 202° |
| 2026-05-06 17:20 | 38.77990 | -9.13408 | 364 ft | 13 kts | 171° |
| 2026-05-06 17:20 | 38.77895 | -9.13382 | 354 ft | 15 kts | 168° |
| 2026-05-06 17:21 | 38.77793 | -9.13355 | 359 ft | 13 kts | 168° |
| 2026-05-06 17:21 | 38.77723 | -9.13320 | 353 ft | 12 kts | 138° |
| 2026-05-06 17:21 | 38.77687 | -9.13249 | 351 ft | 7 kts | 121° |
| 2026-05-06 17:21 | 38.77673 | -9.13218 | 344 ft | 1 kts | 121° |
| 2026-05-06 17:22 | 38.77671 | -9.13215 | 343 ft | 0 kts | 121° |